Souda — SVBH5 — position and weather

sailwx.info

Track history (hours):
 
Tides and Currents Weather Stations Pressure Air Temp Water Temp Dewpoint Dewpoint Depression Visibility Wind Speed Wind Dir Waves Ship Positions

Souda

Last reported at 2014-Nov-27 06:30 UTC. Time now 2014-Nov-27 18:26 UTC.
Position N 37°54' E 023°07'.

Length 88 m; draft 5.4 m.

Type: Tanker. MMSI: 241109000.

Date/timePositionNaut miles runAvg speedWind from/ knotsBaromVisibWave heightAir tempDewpointWater temp
2014-Nov-27 06:30N 37°54' E 023°07'9 9.1
2014-Nov-27 05:33N 37°52' E 023°18'9 9.0
2014-Nov-27 04:33N 37°50' E 023°29'8 7.5
2014-Nov-27 03:33N 37°56' E 023°35'1 1.4
2014-Nov-27 02:32N 37°57' E 023°35'0 0.0
2014-Nov-27 01:32N 37°57' E 023°35'0 0.0
2014-Nov-27 00:32N 37°57' E 023°35'0 0.0
2014-Nov-26 23:32N 37°57' E 023°35'0 0.0
2014-Nov-26 22:29N 37°57' E 023°35'0 0.0
2014-Nov-26 21:32N 37°57' E 023°35'0 0.0
2014-Nov-26 20:32N 37°57' E 023°35'0 0.0
2014-Nov-26 19:05N 37°57' E 023°35'0 0.0
2014-Nov-26 18:32N 37°57' E 023°35'0 0.0
2014-Nov-26 17:32N 37°57' E 023°35'0 0.0
2014-Nov-26 16:29N 37°57' E 023°35'0 0.0
2014-Nov-26 15:32N 37°57' E 023°35'0 0.0
2014-Nov-26 14:32N 37°57' E 023°35'0 0.0
2014-Nov-26 13:32N 37°57' E 023°35'0 0.0
2014-Nov-26 12:32N 37°57' E 023°35'0 0.0
2014-Nov-26 11:32N 37°57' E 023°35'0 0.0
2014-Nov-26 10:32N 37°57' E 023°35'0 0.0
2014-Nov-26 09:32N 37°57' E 023°35'0 0.0
2014-Nov-26 08:32N 37°57' E 023°35'0 0.0
2014-Nov-26 07:32N 37°57' E 023°35'0 0.0
2014-Nov-26 06:29N 37°57' E 023°35'0 0.0
2014-Nov-26 05:32N 37°57' E 023°35'0 0.0
2014-Nov-26 04:32N 37°57' E 023°35'0 0.0
2014-Nov-26 03:32N 37°57' E 023°35'0 0.0
2014-Nov-26 02:32N 37°57' E 023°35'0 0.0
2014-Nov-26 01:32N 37°57' E 023°35'0 0.0
2014-Nov-26 00:32N 37°57' E 023°35'0 0.0
2014-Nov-25 23:29N 37°57' E 023°35'0 0.0
2014-Nov-25 22:32N 37°57' E 023°35'0 0.0
2014-Nov-25 21:32N 37°57' E 023°35'0 0.0
2014-Nov-25 20:32N 37°57' E 023°35'0 0.0
2014-Nov-25 19:32N 37°57' E 023°35'0 0.0
2014-Nov-25 18:32N 37°57' E 023°35'0 0.0
2014-Nov-25 17:32N 37°57' E 023°35'0 0.0
2014-Nov-25 16:32N 37°57' E 023°35'0 0.0
2014-Nov-25 15:32N 37°57' E 023°35'1 0.8
2014-Nov-25 14:33N 37°57' E 023°35'7 6.5
2014-Nov-25 13:33N 37°50' E 023°33'8 7.8
2014-Nov-25 12:33N 37°51' E 023°23'14 0.5
2014-Nov-24 08:33N 37°55' E 023°06'1 0.4
2014-Nov-24 07:16N 37°55' E 023°07'0 0.0
2014-Nov-24 06:33N 37°55' E 023°07'0 0.0
2014-Nov-24 05:11N 37°55' E 023°07'3 4.7
2014-Nov-24 04:33N 37°54' E 023°11'9 9.1
2014-Nov-24 03:33N 37°51' E 023°21'9 9.0
2014-Nov-24 02:33N 37°50' E 023°33'8 7.6
2014-Nov-24 01:33N 37°46' E 023°41'8 8.4
2014-Nov-24 00:33N 37°39' E 023°46'46 7.7
2014-Nov-23 18:33N 36°53' E 023°57'8 7.3
2014-Nov-23 17:28N 36°45' E 023°58'7 7.7
2014-Nov-23 16:32N 36°38' E 023°60'16 7.5
2014-Nov-23 14:24N 36°22' E 024°04'7 7.7
2014-Nov-23 13:33N 36°16' E 024°05'9 8.1
2014-Nov-23 12:27N 36°07' E 024°07'41 0.9
2014-Nov-21 17:22N 36°47' E 023°59'51 8.6
2014-Nov-21 11:25N 37°37' E 023°43'7 8.7
2014-Nov-21 10:34N 37°44' E 023°40'7 7.4
2014-Nov-21 09:34N 37°50' E 023°33'9 8.6
2014-Nov-21 08:34N 37°51' E 023°23'9 8.5
2014-Nov-21 07:31N 37°53' E 023°12'6 0.3
2014-Nov-20 15:33N 37°55' E 023°05'1 0.2
2014-Nov-20 11:24N 37°54' E 023°06'0 0.0
2014-Nov-20 10:28N 37°55' E 023°06'5 5.1
2014-Nov-20 09:30N 37°53' E 023°12'8 8.3
2014-Nov-20 08:33N 37°51' E 023°21'8 8.3
2014-Nov-20 07:33N 37°50' E 023°32'8 1.3
2014-Nov-20 01:15N 37°57' E 023°35'0 0.0
2014-Nov-20 00:33N 37°57' E 023°35'0 0.0
2014-Nov-19 23:33N 37°57' E 023°35'0 0.0
2014-Nov-19 22:33N 37°57' E 023°35'0 0.0
2014-Nov-19 21:33N 37°57' E 023°35'0 0.0
2014-Nov-19 20:33N 37°57' E 023°35'0 0.0
2014-Nov-19 19:30N 37°57' E 023°35'0 0.0
2014-Nov-19 18:33N 37°57' E 023°35'0 0.0
2014-Nov-19 17:33N 37°57' E 023°35'0 0.0
2014-Nov-19 16:33N 37°57' E 023°35'0 0.0
2014-Nov-19 15:33N 37°57' E 023°35'0 0.0
2014-Nov-19 14:33N 37°57' E 023°35'0 0.0
2014-Nov-19 13:33N 37°57' E 023°35'0 0.0
2014-Nov-19 12:33N 37°57' E 023°35'0 0.0
2014-Nov-19 11:33N 37°57' E 023°35'0 0.0
2014-Nov-19 10:33N 37°57' E 023°35'0 0.0
2014-Nov-19 09:33N 37°57' E 023°35'4 3.5
2014-Nov-19 08:34N 37°54' E 023°35'7 7.0
2014-Nov-19 07:34N 37°50' E 023°28'8 8.3
2014-Nov-19 06:34N 37°52' E 023°17'10 8.0
2014-Nov-19 05:20N 37°55' E 023°06'0 0.0
2014-Nov-18 15:33N 37°55' E 023°05'7 6.5
2014-Nov-18 14:25N 37°53' E 023°14'8 8.9
2014-Nov-18 13:28N 37°50' E 023°24'8 8.8
2014-Nov-18 12:33N 37°50' E 023°35'8 8.0
2014-Nov-18 11:33N 37°45' E 023°42'24 7.7
2014-Nov-18 08:29N 37°39' E 024°11'21 9.1
2014-Nov-18 06:11N 37°53' E 024°32'  
Track history (hours):
 
Tides and Currents Weather Stations Pressure Air Temp Water Temp Dewpoint Dewpoint Depression Visibility Wind Speed Wind Dir Waves Ship Positions

Souda

Last reported at 2014-Nov-27 06:30 UTC. Time now 2014-Nov-27 18:26 UTC.
Position N 37°54' E 023°07'.

Length 88 m; draft 5.4 m.

Type: Tanker. MMSI: 241109000.

Date/timePositionNaut miles runAvg speedWind from/ knotsBaromVisibWave heightAir tempDewpointWater temp
2014-Nov-27 06:30N 37°54' E 023°07'9 9.1
2014-Nov-27 05:33N 37°52' E 023°18'9 9.0
2014-Nov-27 04:33N 37°50' E 023°29'8 7.5
2014-Nov-27 03:33N 37°56' E 023°35'1 1.4
2014-Nov-27 02:32N 37°57' E 023°35'0 0.0
2014-Nov-27 01:32N 37°57' E 023°35'0 0.0
2014-Nov-27 00:32N 37°57' E 023°35'0 0.0
2014-Nov-26 23:32N 37°57' E 023°35'0 0.0
2014-Nov-26 22:29N 37°57' E 023°35'0 0.0
2014-Nov-26 21:32N 37°57' E 023°35'0 0.0
2014-Nov-26 20:32N 37°57' E 023°35'0 0.0
2014-Nov-26 19:05N 37°57' E 023°35'0 0.0
2014-Nov-26 18:32N 37°57' E 023°35'0 0.0
2014-Nov-26 17:32N 37°57' E 023°35'0 0.0
2014-Nov-26 16:29N 37°57' E 023°35'0 0.0
2014-Nov-26 15:32N 37°57' E 023°35'0 0.0
2014-Nov-26 14:32N 37°57' E 023°35'0 0.0
2014-Nov-26 13:32N 37°57' E 023°35'0 0.0
2014-Nov-26 12:32N 37°57' E 023°35'0 0.0
2014-Nov-26 11:32N 37°57' E 023°35'0 0.0
2014-Nov-26 10:32N 37°57' E 023°35'0 0.0
2014-Nov-26 09:32N 37°57' E 023°35'0 0.0
2014-Nov-26 08:32N 37°57' E 023°35'0 0.0
2014-Nov-26 07:32N 37°57' E 023°35'0 0.0
2014-Nov-26 06:29N 37°57' E 023°35'0 0.0
2014-Nov-26 05:32N 37°57' E 023°35'0 0.0
2014-Nov-26 04:32N 37°57' E 023°35'0 0.0
2014-Nov-26 03:32N 37°57' E 023°35'0 0.0
2014-Nov-26 02:32N 37°57' E 023°35'0 0.0
2014-Nov-26 01:32N 37°57' E 023°35'0 0.0
2014-Nov-26 00:32N 37°57' E 023°35'0 0.0
2014-Nov-25 23:29N 37°57' E 023°35'0 0.0
2014-Nov-25 22:32N 37°57' E 023°35'0 0.0
2014-Nov-25 21:32N 37°57' E 023°35'0 0.0
2014-Nov-25 20:32N 37°57' E 023°35'0 0.0
2014-Nov-25 19:32N 37°57' E 023°35'0 0.0
2014-Nov-25 18:32N 37°57' E 023°35'0 0.0
2014-Nov-25 17:32N 37°57' E 023°35'0 0.0
2014-Nov-25 16:32N 37°57' E 023°35'0 0.0
2014-Nov-25 15:32N 37°57' E 023°35'1 0.8
2014-Nov-25 14:33N 37°57' E 023°35'7 6.5
2014-Nov-25 13:33N 37°50' E 023°33'8 7.8
2014-Nov-25 12:33N 37°51' E 023°23'14 0.5
2014-Nov-24 08:33N 37°55' E 023°06'1 0.4
2014-Nov-24 07:16N 37°55' E 023°07'0 0.0
2014-Nov-24 06:33N 37°55' E 023°07'0 0.0
2014-Nov-24 05:11N 37°55' E 023°07'3 4.7
2014-Nov-24 04:33N 37°54' E 023°11'9 9.1
2014-Nov-24 03:33N 37°51' E 023°21'9 9.0
2014-Nov-24 02:33N 37°50' E 023°33'8 7.6
2014-Nov-24 01:33N 37°46' E 023°41'8 8.4
2014-Nov-24 00:33N 37°39' E 023°46'46 7.7
2014-Nov-23 18:33N 36°53' E 023°57'8 7.3
2014-Nov-23 17:28N 36°45' E 023°58'7 7.7
2014-Nov-23 16:32N 36°38' E 023°60'16 7.5
2014-Nov-23 14:24N 36°22' E 024°04'7 7.7
2014-Nov-23 13:33N 36°16' E 024°05'9 8.1
2014-Nov-23 12:27N 36°07' E 024°07'41 0.9
2014-Nov-21 17:22N 36°47' E 023°59'51 8.6
2014-Nov-21 11:25N 37°37' E 023°43'7 8.7
2014-Nov-21 10:34N 37°44' E 023°40'7 7.4
2014-Nov-21 09:34N 37°50' E 023°33'9 8.6
2014-Nov-21 08:34N 37°51' E 023°23'9 8.5
2014-Nov-21 07:31N 37°53' E 023°12'6 0.3
2014-Nov-20 15:33N 37°55' E 023°05'1 0.2
2014-Nov-20 11:24N 37°54' E 023°06'0 0.0
2014-Nov-20 10:28N 37°55' E 023°06'5 5.1
2014-Nov-20 09:30N 37°53' E 023°12'8 8.3
2014-Nov-20 08:33N 37°51' E 023°21'8 8.3
2014-Nov-20 07:33N 37°50' E 023°32'8 1.3
2014-Nov-20 01:15N 37°57' E 023°35'0 0.0
2014-Nov-20 00:33N 37°57' E 023°35'0 0.0
2014-Nov-19 23:33N 37°57' E 023°35'0 0.0
2014-Nov-19 22:33N 37°57' E 023°35'0 0.0
2014-Nov-19 21:33N 37°57' E 023°35'0 0.0
2014-Nov-19 20:33N 37°57' E 023°35'0 0.0
2014-Nov-19 19:30N 37°57' E 023°35'0 0.0
2014-Nov-19 18:33N 37°57' E 023°35'0 0.0
2014-Nov-19 17:33N 37°57' E 023°35'0 0.0
2014-Nov-19 16:33N 37°57' E 023°35'0 0.0
2014-Nov-19 15:33N 37°57' E 023°35'0 0.0
2014-Nov-19 14:33N 37°57' E 023°35'0 0.0
2014-Nov-19 13:33N 37°57' E 023°35'0 0.0
2014-Nov-19 12:33N 37°57' E 023°35'0 0.0
2014-Nov-19 11:33N 37°57' E 023°35'0 0.0
2014-Nov-19 10:33N 37°57' E 023°35'0 0.0
2014-Nov-19 09:33N 37°57' E 023°35'4 3.5
2014-Nov-19 08:34N 37°54' E 023°35'7 7.0
2014-Nov-19 07:34N 37°50' E 023°28'8 8.3
2014-Nov-19 06:34N 37°52' E 023°17'10 8.0
2014-Nov-19 05:20N 37°55' E 023°06'0 0.0
2014-Nov-18 15:33N 37°55' E 023°05'7 6.5
2014-Nov-18 14:25N 37°53' E 023°14'8 8.9
2014-Nov-18 13:28N 37°50' E 023°24'8 8.8
2014-Nov-18 12:33N 37°50' E 023°35'8 8.0
2014-Nov-18 11:33N 37°45' E 023°42'24 7.7
2014-Nov-18 08:29N 37°39' E 024°11'21 9.1
2014-Nov-18 06:11N 37°53' E 024°32'  

Dump ship's entire track history